createdAt,value
2023-01-04T00:00:03.529Z,98956.13
2023-01-04T00:02:34.465Z,98963.13
2023-01-04T00:05:02.813Z,98960.56
2023-01-04T00:07:31.620Z,98951.75
2023-01-04T00:10:00.018Z,98952.72
2023-01-04T00:12:28.461Z,98943.97
2023-01-04T00:14:56.680Z,98945.81
2023-01-04T00:17:24.946Z,98944.00
2023-01-04T00:19:54.685Z,98938.69
2023-01-04T00:22:22.951Z,98936.94
2023-01-04T00:24:51.225Z,98932.59
2023-01-04T00:27:19.422Z,98937.91
2023-01-04T00:29:47.612Z,98939.63
2023-01-04T00:32:15.878Z,98932.72
2023-01-04T00:34:44.046Z,98935.34
2023-01-04T00:37:13.605Z,98933.50
2023-01-04T00:39:41.786Z,98931.78
2023-01-04T00:42:10.035Z,98935.31
2023-01-04T00:44:38.473Z,98938.84
2023-01-04T00:47:06.737Z,98940.59
2023-01-04T00:49:34.990Z,98940.69
2023-01-04T00:52:03.329Z,98932.84
2023-01-04T00:54:32.873Z,98939.84
2023-01-04T00:57:01.365Z,98938.84
2023-01-04T00:59:29.811Z,98944.13
2023-01-04T01:01:58.602Z,98945.03
2023-01-04T01:04:27.180Z,98950.34
2023-01-04T01:06:55.402Z,98938.88
2023-01-04T01:09:24.092Z,98935.38
2023-01-04T01:11:54.985Z,98939.84
2023-01-04T01:14:25.881Z,98942.44
2023-01-04T01:16:57.769Z,98939.72
2023-01-04T01:19:27.809Z,98944.94
2023-01-04T01:21:57.857Z,98951.13
2023-01-04T01:24:27.070Z,98948.47
2023-01-04T01:26:57.282Z,98943.19
2023-01-04T01:29:26.123Z,98945.88
2023-01-04T01:31:54.600Z,98942.41
2023-01-04T01:34:22.913Z,98937.84
2023-01-04T01:36:51.354Z,98943.09
2023-01-04T01:39:19.721Z,98940.53
2023-01-04T01:41:48.147Z,98937.97
2023-01-04T01:45:00.128Z,98935.31
2023-01-04T01:47:33.475Z,98942.31
2023-01-04T01:50:02.737Z,98939.69
2023-01-04T01:52:36.120Z,98934.50
2023-01-04T01:55:08.737Z,98927.56
2023-01-04T01:57:39.347Z,98924.84
2023-01-04T02:00:13.437Z,98925.75
2023-01-04T02:02:46.777Z,98931.78
2023-01-04T02:05:15.509Z,98930.06
2023-01-04T02:07:44.648Z,98918.56
2023-01-04T02:10:13.254Z,98915.94
2023-01-04T02:12:42.006Z,98921.19
2023-01-04T02:15:12.452Z,98914.22
2023-01-04T02:17:50.175Z,98922.16
2023-01-04T02:20:44.511Z,98915.19
2023-01-04T02:23:57.147Z,98916.81
2023-01-04T02:26:54.093Z,98914.28
2023-01-04T02:29:54.660Z,98916.13
2023-01-04T02:32:35.074Z,98913.47
2023-01-04T02:35:13.071Z,98905.59
2023-01-04T02:37:47.110Z,98915.25
2023-01-04T02:40:22.224Z,98912.44
2023-01-04T02:43:17.237Z,98911.53
2023-01-04T02:45:52.283Z,98913.31
2023-01-04T02:48:39.187Z,98914.22
2023-01-04T02:51:25.716Z,98921.16
2023-01-04T02:53:54.052Z,98915.78
2023-01-04T02:56:36.530Z,98920.31
2023-01-04T02:59:35.000Z,98923.81
2023-01-04T03:02:32.745Z,98922.88
2023-01-04T03:05:29.553Z,98926.59
2023-01-04T03:08:07.302Z,98929.25
2023-01-04T03:10:41.620Z,98931.75
2023-01-04T03:13:17.250Z,98930.88
2023-01-04T03:15:52.121Z,98927.31
2023-01-04T03:18:24.541Z,98917.63
2023-01-04T03:20:57.278Z,98907.03
2023-01-04T03:23:48.665Z,98914.16
2023-01-04T03:26:38.253Z,98916.66
2023-01-04T03:29:29.579Z,98911.41
2023-01-04T03:32:21.084Z,98917.50
2023-01-04T03:35:07.621Z,98914.03
2023-01-04T03:37:46.864Z,98905.06
2023-01-04T03:40:42.808Z,98903.34
2023-01-04T03:43:35.579Z,98910.56
2023-01-04T03:46:26.730Z,98910.56
2023-01-04T03:49:01.537Z,98904.44
2023-01-04T03:51:34.935Z,98901.84
2023-01-04T03:54:09.995Z,98903.47
2023-01-04T03:56:41.850Z,98907.13
2023-01-04T03:59:11.211Z,98906.19
2023-01-04T04:01:40.554Z,98908.00
2023-01-04T04:04:26.328Z,98917.63
2023-01-04T04:07:12.420Z,98922.81
2023-01-04T04:09:42.091Z,98914.78
2023-01-04T04:12:10.279Z,98911.44
2023-01-04T04:14:38.544Z,98909.69
2023-01-04T04:17:06.800Z,98913.16
2023-01-04T04:19:34.952Z,98899.03
2023-01-04T04:22:03.159Z,98902.56
2023-01-04T04:24:31.361Z,98898.16
2023-01-04T04:27:00.949Z,98902.63
2023-01-04T04:29:29.175Z,98889.53
2023-01-04T04:31:57.417Z,98887.88
2023-01-04T04:34:25.613Z,98897.34
2023-01-04T04:36:53.787Z,98891.34
2023-01-04T04:39:21.949Z,98903.47
2023-01-04T04:41:49.109Z,98906.00
2023-01-04T04:44:20.141Z,98913.81
2023-01-04T04:46:50.164Z,98905.69
2023-01-04T04:49:19.289Z,98905.56
2023-01-04T04:51:48.002Z,98897.75
2023-01-04T04:54:19.997Z,98899.69
2023-01-04T04:56:48.533Z,98887.59
2023-01-04T04:59:18.225Z,98898.94
2023-01-04T05:01:46.892Z,98912.06
2023-01-04T05:04:17.123Z,98912.81
2023-01-04T05:06:46.427Z,98910.03
2023-01-04T05:09:15.251Z,98904.94
2023-01-04T05:12:01.830Z,98898.13
2023-01-04T05:14:31.431Z,98896.31
2023-01-04T05:16:59.744Z,98902.50
2023-01-04T05:19:28.043Z,98899.81
2023-01-04T05:21:56.162Z,98894.31
2023-01-04T05:24:24.380Z,98892.66
2023-01-04T05:26:52.519Z,98885.69
2023-01-04T05:29:37.811Z,98888.25
2023-01-04T05:32:07.708Z,98890.09
2023-01-04T05:34:35.977Z,98892.69
2023-01-04T05:37:04.190Z,98889.22
2023-01-04T05:39:32.346Z,98884.50
2023-01-04T05:42:18.287Z,98891.44
2023-01-04T05:44:46.431Z,98892.22
2023-01-04T05:47:16.060Z,98903.59
2023-01-04T05:49:44.275Z,98905.31
2023-01-04T05:52:13.002Z,98906.25
2023-01-04T05:54:41.335Z,98902.03
2023-01-04T05:57:09.923Z,98901.22
2023-01-04T05:59:41.718Z,98897.72
2023-01-04T06:02:18.302Z,98889.94
2023-01-04T06:04:48.471Z,98897.94
2023-01-04T06:07:20.052Z,98904.84
2023-01-04T06:09:48.293Z,98906.66
2023-01-04T06:12:16.921Z,98908.28
2023-01-04T06:14:45.088Z,98904.19
2023-01-04T06:17:13.457Z,98914.78
2023-01-04T06:19:43.136Z,98913.16
2023-01-04T06:22:11.333Z,98904.28
2023-01-04T06:24:39.515Z,98903.50
2023-01-04T06:27:07.730Z,98911.41
2023-01-04T06:29:35.911Z,98913.13
2023-01-04T06:32:04.044Z,98913.97
2023-01-04T06:34:32.347Z,98911.41
2023-01-04T06:37:01.878Z,98899.22
2023-01-04T06:39:30.102Z,98915.78
2023-01-04T06:42:05.695Z,98908.78
2023-01-04T06:44:34.737Z,98914.78
2023-01-04T06:47:02.928Z,98915.00
2023-01-04T06:49:31.070Z,98903.47
2023-01-04T06:51:59.352Z,98909.63
2023-01-04T06:54:29.869Z,98907.03
2023-01-04T06:56:58.120Z,98907.88
2023-01-04T06:59:26.288Z,98908.72
2023-01-04T07:01:54.661Z,98895.59
2023-01-04T07:04:23.197Z,98900.63
2023-01-04T07:06:51.447Z,98901.47
2023-01-04T07:09:19.860Z,98908.63
2023-01-04T07:11:49.394Z,98913.91
2023-01-04T07:14:17.679Z,98914.84
2023-01-04T07:16:45.985Z,98922.75
2023-01-04T07:19:14.383Z,98920.03
2023-01-04T07:21:42.817Z,98919.03
2023-01-04T07:24:11.311Z,98908.50
2023-01-04T07:26:39.482Z,98922.38
2023-01-04T07:29:17.475Z,98921.47
2023-01-04T07:31:48.051Z,98918.78
2023-01-04T07:34:17.365Z,98909.72
2023-01-04T07:36:46.173Z,98907.06
2023-01-04T07:39:14.605Z,98904.50
2023-01-04T07:41:43.372Z,98897.47
2023-01-04T07:44:13.882Z,98901.78
2023-01-04T07:46:42.827Z,98909.59
2023-01-04T07:49:17.448Z,98910.66
2023-01-04T07:51:47.068Z,98923.00
2023-01-04T07:54:15.988Z,98922.13
2023-01-04T07:56:44.576Z,98922.13
2023-01-04T07:59:15.831Z,98922.84
2023-01-04T08:01:44.489Z,98916.63
2023-01-04T08:04:14.331Z,98918.69
2023-01-04T08:06:44.125Z,98909.00
2023-01-04T08:09:13.045Z,98905.41
2023-01-04T08:11:42.048Z,98911.59
2023-01-04T08:14:10.382Z,98899.91
2023-01-04T08:16:41.733Z,98898.97
2023-01-04T08:19:14.486Z,98907.69
2023-01-04T08:21:43.582Z,98903.97
2023-01-04T08:24:13.050Z,98909.28
2023-01-04T08:26:41.437Z,98909.88
2023-01-04T08:29:10.394Z,98906.41
2023-01-04T08:31:40.299Z,98910.53
2023-01-04T08:34:10.159Z,98906.66
2023-01-04T08:36:47.272Z,98903.00
2023-01-04T08:39:15.786Z,98899.78
2023-01-04T08:42:10.850Z,98896.84
2023-01-04T08:44:41.892Z,98895.69
2023-01-04T08:47:11.410Z,98892.19
2023-01-04T08:49:39.719Z,98887.31
2023-01-04T08:52:09.329Z,98882.00
2023-01-04T08:54:37.629Z,98881.75
2023-01-04T08:57:06.054Z,98885.41
2023-01-04T08:59:34.223Z,98876.28
2023-01-04T09:02:05.656Z,98882.59
2023-01-04T09:04:36.057Z,98876.47
2023-01-04T09:07:04.237Z,98875.47
2023-01-04T09:09:32.546Z,98870.97
2023-01-04T09:12:00.821Z,98874.34
2023-01-04T09:14:29.069Z,98873.84
2023-01-04T09:16:57.663Z,98878.13
2023-01-04T09:19:26.424Z,98869.41
2023-01-04T09:21:57.695Z,98867.97
2023-01-04T09:24:26.110Z,98865.53
2023-01-04T09:26:54.766Z,98854.00
2023-01-04T09:29:24.653Z,98850.31
2023-01-04T09:31:53.293Z,98847.28
2023-01-04T09:34:22.912Z,98849.91
2023-01-04T09:36:52.366Z,98855.94
2023-01-04T09:39:24.222Z,98836.31
2023-01-04T09:41:58.463Z,98842.34
2023-01-04T09:47:40.852Z,98827.53
2023-01-04T09:50:17.637Z,98814.38
2023-01-04T09:52:56.985Z,98818.34
2023-01-04T09:55:37.626Z,98806.56
2023-01-04T09:58:23.571Z,98802.59
2023-01-04T10:01:01.746Z,98806.47
2023-01-04T10:03:32.747Z,98802.88
2023-01-04T10:06:04.753Z,98799.75
2023-01-04T10:08:34.017Z,98789.34
2023-01-04T10:11:16.863Z,98792.22
2023-01-04T10:13:59.972Z,98797.97
2023-01-04T10:22:43.354Z,98767.63
2023-01-04T10:25:25.309Z,98768.91
2023-01-04T10:28:12.112Z,98760.69
2023-01-04T10:30:49.561Z,98760.38
2023-01-04T10:33:27.212Z,98761.31
2023-01-04T10:35:56.012Z,98749.47
2023-01-04T10:38:27.101Z,98746.97
2023-01-04T10:40:59.137Z,98742.78
2023-01-04T10:44:12.121Z,98737.50
2023-01-04T10:46:32.106Z,98724.97
2023-01-04T10:49:06.184Z,98706.69
2023-01-04T10:51:41.903Z,98706.66
2023-01-04T10:54:17.663Z,98693.22
2023-01-04T10:56:52.609Z,98696.91
2023-01-04T10:59:27.735Z,98686.63
2023-01-04T11:02:01.796Z,98687.59
2023-01-04T11:04:36.750Z,98682.06
2023-01-04T11:07:13.187Z,98673.00
2023-01-04T11:09:48.299Z,98662.63
2023-01-04T11:12:20.551Z,98666.06
2023-01-04T11:14:51.011Z,98679.25
2023-01-04T11:17:21.633Z,98673.47
2023-01-04T11:19:50.699Z,98677.53
2023-01-04T11:22:25.249Z,98675.13
2023-01-04T11:27:51.552Z,98662.91
2023-01-04T11:30:24.048Z,98664.72
2023-01-04T11:32:59.780Z,98654.06
2023-01-04T11:35:44.052Z,98651.94
2023-01-04T11:38:15.159Z,98646.63
2023-01-04T11:40:43.901Z,98641.91
2023-01-04T11:43:18.571Z,98636.16
2023-01-04T11:46:00.439Z,98631.34
2023-01-04T11:48:40.776Z,98635.06
2023-01-04T11:51:20.987Z,98630.56
2023-01-04T11:54:00.023Z,98628.13
2023-01-04T11:56:30.153Z,98622.41
2023-01-04T11:59:20.666Z,98616.50
2023-01-04T12:05:24.562Z,98600.84
2023-01-04T12:07:57.670Z,98601.06
2023-01-04T12:10:28.224Z,98597.03
2023-01-04T12:12:57.564Z,98591.28
2023-01-04T12:15:33.248Z,98582.00
2023-01-04T12:18:07.957Z,98584.75
2023-01-04T12:20:37.392Z,98578.97
2023-01-04T12:23:05.648Z,98583.28
2023-01-04T12:25:41.978Z,98569.91
2023-01-04T12:28:30.471Z,98569.53
2023-01-04T12:31:30.134Z,98563.53
2023-01-04T12:34:21.215Z,98555.16
2023-01-04T12:37:04.947Z,98554.06
2023-01-04T12:39:42.044Z,98553.94
2023-01-04T12:42:19.935Z,98552.56
2023-01-04T12:45:04.593Z,98549.94
2023-01-04T12:48:01.095Z,98540.16
2023-01-04T12:50:32.055Z,98543.69
2023-01-04T12:55:56.546Z,98535.59
2023-01-04T12:59:24.708Z,98526.75
2023-01-04T13:02:19.693Z,98518.88
2023-01-04T13:04:53.315Z,98516.09
2023-01-04T13:07:34.272Z,98518.75
2023-01-04T13:10:20.712Z,98520.16
2023-01-04T13:13:26.602Z,98506.34
2023-01-04T13:16:06.341Z,98507.88
2023-01-04T13:18:41.069Z,98500.56
2023-01-04T13:21:15.707Z,98501.06
2023-01-04T13:23:51.183Z,98501.06
2023-01-04T13:26:35.010Z,98498.94
2023-01-04T13:29:16.914Z,98500.16
2023-01-04T13:32:02.920Z,98498.59
2023-01-04T13:34:34.022Z,98494.47
2023-01-04T13:37:15.102Z,98493.81
2023-01-04T13:39:46.074Z,98498.53
2023-01-04T13:42:23.176Z,98490.25
2023-01-04T13:45:24.355Z,98481.59
2023-01-04T13:47:56.934Z,98486.94
2023-01-04T13:50:33.977Z,98477.97
2023-01-04T13:53:07.946Z,98466.91
2023-01-04T13:55:38.863Z,98471.97
2023-01-04T13:58:18.296Z,98470.75
2023-01-04T14:00:49.759Z,98480.63
2023-01-04T14:03:32.776Z,98465.25
2023-01-04T14:06:15.769Z,98462.50
2023-01-04T14:08:49.354Z,98463.31
2023-01-04T14:11:36.030Z,98461.84
2023-01-04T14:14:21.978Z,98459.50
2023-01-04T14:16:52.309Z,98458.91
2023-01-04T14:19:52.315Z,98455.72
2023-01-04T14:22:26.765Z,98456.22
2023-01-04T14:25:12.494Z,98457.06
2023-01-04T14:27:43.098Z,98454.38
2023-01-04T14:30:26.352Z,98451.31
2023-01-04T14:32:56.657Z,98454.22
2023-01-04T14:35:25.887Z,98449.63
2023-01-04T14:37:55.418Z,98460.09
2023-01-04T14:40:27.375Z,98444.69
2023-01-04T14:42:55.839Z,98445.09
2023-01-04T14:45:25.659Z,98440.72
2023-01-04T14:47:53.853Z,98427.41
2023-01-04T14:50:22.131Z,98430.16
2023-01-04T14:52:52.510Z,98436.34
2023-01-04T14:55:23.396Z,98424.34
2023-01-04T14:57:52.291Z,98423.56
2023-01-04T15:00:20.736Z,98415.78
2023-01-04T15:02:52.128Z,98424.78
2023-01-04T15:05:20.765Z,98429.16
2023-01-04T15:07:49.686Z,98429.81
2023-01-04T15:10:23.058Z,98426.00
2023-01-04T15:12:51.742Z,98426.13
2023-01-04T15:15:20.950Z,98424.31
2023-01-04T15:17:50.590Z,98409.53
2023-01-04T15:20:18.943Z,98405.66
2023-01-04T15:22:47.249Z,98411.59
2023-01-04T15:25:15.447Z,98416.47
2023-01-04T15:27:43.637Z,98411.22
2023-01-04T15:30:12.992Z,98407.22
2023-01-04T15:32:41.490Z,98395.41
2023-01-04T15:35:16.190Z,98407.53
2023-01-04T15:37:44.569Z,98400.00
2023-01-04T15:40:14.696Z,98404.78
2023-01-04T15:43:01.327Z,98402.28
2023-01-04T15:45:31.006Z,98408.88
2023-01-04T15:48:03.297Z,98396.31
2023-01-04T15:50:35.233Z,98398.59
2023-01-04T15:53:03.589Z,98408.03
2023-01-04T15:55:36.013Z,98404.19
2023-01-04T15:58:05.118Z,98402.66
2023-01-04T16:00:33.286Z,98403.53
2023-01-04T16:03:01.572Z,98408.88
2023-01-04T16:05:29.936Z,98409.19
2023-01-04T16:07:59.483Z,98402.16
2023-01-04T16:10:28.137Z,98410.22
2023-01-04T16:12:57.282Z,98419.09
2023-01-04T16:15:25.806Z,98415.59
2023-01-04T16:17:54.022Z,98414.06
2023-01-04T16:20:22.681Z,98391.56
2023-01-04T16:22:50.878Z,98409.09
2023-01-04T16:25:20.732Z,98415.19
2023-01-04T16:27:48.975Z,98410.66
2023-01-04T16:30:20.064Z,98402.72
2023-01-04T16:32:51.505Z,98402.75
2023-01-04T16:35:19.804Z,98402.00
2023-01-04T16:37:48.097Z,98395.03
2023-01-04T16:40:16.334Z,98392.25
2023-01-04T16:42:50.925Z,98393.31
2023-01-04T16:45:20.344Z,98392.50
2023-01-04T16:47:50.446Z,98388.22
2023-01-04T16:50:18.802Z,98385.72
2023-01-04T16:52:47.064Z,98380.19
2023-01-04T16:55:21.838Z,98398.56
2023-01-04T16:57:53.388Z,98398.56
2023-01-04T17:00:21.695Z,98401.59
2023-01-04T17:02:49.984Z,98404.28
2023-01-04T17:05:18.239Z,98395.31
2023-01-04T17:07:46.401Z,98395.22
2023-01-04T17:10:14.823Z,98392.72
2023-01-04T17:12:47.689Z,98381.13
2023-01-04T17:18:06.760Z,98372.03
2023-01-04T17:20:35.175Z,98370.25
2023-01-04T17:23:03.646Z,98359.59
2023-01-04T17:25:32.532Z,98352.63
2023-01-04T17:28:01.256Z,98356.78
2023-01-04T17:30:31.136Z,98355.56
2023-01-04T17:32:59.951Z,98348.53
2023-01-04T17:35:28.740Z,98348.56
2023-01-04T17:37:57.122Z,98351.31
2023-01-04T17:40:25.505Z,98340.50
2023-01-04T17:42:53.761Z,98327.97
2023-01-04T17:45:22.601Z,98333.69
2023-01-04T17:47:53.945Z,98334.69
2023-01-04T17:50:23.240Z,98316.88
2023-01-04T17:52:52.305Z,98320.34
2023-01-04T17:55:21.515Z,98316.88
2023-01-04T17:57:50.810Z,98316.69
2023-01-04T18:00:20.423Z,98317.63
2023-01-04T18:02:48.805Z,98318.69
2023-01-04T18:05:19.415Z,98325.81
2023-01-04T18:07:47.927Z,98332.03
2023-01-04T18:10:33.061Z,98329.34
2023-01-04T18:13:05.640Z,98317.97
2023-01-04T18:15:43.896Z,98319.13
2023-01-04T18:18:23.818Z,98317.41
2023-01-04T18:20:56.181Z,98306.00
2023-01-04T18:23:30.184Z,98306.81
2023-01-04T18:26:03.348Z,98297.19
2023-01-04T18:28:32.872Z,98289.34
2023-01-04T18:31:15.049Z,98288.66
2023-01-04T18:33:45.634Z,98288.66
2023-01-04T18:36:17.573Z,98286.84
2023-01-04T18:38:50.716Z,98288.44
2023-01-04T18:41:22.238Z,98285.00
2023-01-04T18:44:13.219Z,98286.50
2023-01-04T18:46:42.967Z,98289.78
2023-01-04T18:49:14.074Z,98289.06
2023-01-04T18:51:44.181Z,98280.75
2023-01-04T18:54:21.151Z,98275.72
2023-01-04T18:56:52.268Z,98268.94
2023-01-04T18:59:26.725Z,98270.53
2023-01-04T19:02:02.233Z,98260.88
2023-01-04T19:04:34.884Z,98260.91
2023-01-04T19:07:11.630Z,98246.91
2023-01-04T19:09:43.083Z,98246.03
2023-01-04T19:12:14.772Z,98254.75
2023-01-04T19:14:52.912Z,98243.56
2023-01-04T19:26:02.221Z,98230.50
2023-01-04T19:28:32.044Z,98229.47
2023-01-04T19:31:07.069Z,98228.75
2023-01-04T19:33:36.745Z,98232.28
2023-01-04T19:36:08.572Z,98237.69
2023-01-04T19:38:38.590Z,98240.13
2023-01-04T19:41:16.705Z,98239.44
2023-01-04T19:43:48.366Z,98238.56
2023-01-04T19:46:20.317Z,98232.41
2023-01-04T19:48:51.365Z,98241.03
2023-01-04T19:51:26.761Z,98242.00
2023-01-04T19:53:56.917Z,98240.41
2023-01-04T19:56:28.353Z,98232.66
2023-01-04T19:58:58.127Z,98233.59
2023-01-04T20:01:28.310Z,98225.41
2023-01-04T20:03:59.493Z,98223.53
2023-01-04T20:06:33.031Z,98203.53
2023-01-04T20:09:02.894Z,98202.56
2023-01-04T20:11:39.055Z,98203.34
2023-01-04T20:14:09.943Z,98210.44
2023-01-04T20:16:39.483Z,98207.09
2023-01-04T20:19:10.798Z,98206.22
2023-01-04T20:21:40.022Z,98195.09
2023-01-04T20:24:10.109Z,98195.09
2023-01-04T20:26:40.878Z,98195.94
2023-01-04T20:29:10.935Z,98187.97
2023-01-04T20:31:45.722Z,98186.44
2023-01-04T20:34:15.164Z,98196.03
2023-01-04T20:36:44.989Z,98191.00
2023-01-04T20:39:17.112Z,98178.19
2023-01-04T20:42:02.033Z,98181.06
2023-01-04T20:44:31.064Z,98186.97
2023-01-04T20:46:59.980Z,98184.91
2023-01-04T20:49:30.822Z,98190.03
2023-01-04T20:52:00.199Z,98178.69
2023-01-04T20:54:29.570Z,98165.28
2023-01-04T20:57:00.153Z,98169.03
2023-01-04T20:59:29.266Z,98157.91
2023-01-04T21:02:00.398Z,98151.00
2023-01-04T21:04:29.714Z,98149.50
2023-01-04T21:06:58.946Z,98142.28
2023-01-04T21:09:27.933Z,98150.31
2023-01-04T21:12:04.953Z,98142.50
2023-01-04T21:14:38.297Z,98157.41
2023-01-04T21:17:07.299Z,98143.25
2023-01-04T21:19:36.118Z,98149.63
2023-01-04T21:22:05.267Z,98138.59
2023-01-04T21:24:36.045Z,98141.13
2023-01-04T21:27:06.441Z,98143.88
2023-01-04T21:29:34.964Z,98153.34
2023-01-04T21:32:03.269Z,98138.59
2023-01-04T21:34:31.730Z,98137.84
2023-01-04T21:37:00.212Z,98134.59
2023-01-04T21:39:28.902Z,98113.00
2023-01-04T21:41:57.677Z,98114.81
2023-01-04T21:44:27.391Z,98111.28
2023-01-04T21:46:56.490Z,98108.50
2023-01-04T21:49:25.137Z,98108.56
2023-01-04T21:51:54.247Z,98097.97
2023-01-04T21:54:22.676Z,98104.50
2023-01-04T21:56:51.203Z,98100.94
2023-01-04T21:59:19.704Z,98095.69
2023-01-04T22:01:50.036Z,98097.59
2023-01-04T22:04:18.542Z,98101.06
2023-01-04T22:06:46.880Z,98087.06
2023-01-04T22:09:15.187Z,98101.75
2023-01-04T22:11:43.630Z,98094.97
2023-01-04T22:14:11.992Z,98092.16
2023-01-04T22:16:40.913Z,98085.88
2023-01-04T22:19:13.356Z,98089.69
2023-01-04T22:21:42.553Z,98077.81
2023-01-04T22:24:12.764Z,98076.97
2023-01-04T22:26:41.780Z,98076.72
2023-01-04T22:29:12.555Z,98075.06
2023-01-04T22:31:41.085Z,98075.19
2023-01-04T22:34:10.888Z,98069.75
2023-01-04T22:36:39.468Z,98065.22
2023-01-04T22:39:08.044Z,98071.47
2023-01-04T22:41:36.392Z,98070.88
2023-01-04T22:44:06.408Z,98059.44
2023-01-04T22:46:36.573Z,98073.22
2023-01-04T22:49:05.120Z,98054.06
2023-01-04T22:51:34.889Z,98062.97
2023-01-04T22:54:05.885Z,98047.22
2023-01-04T22:56:34.307Z,98041.84
2023-01-04T22:59:02.605Z,98036.50
2023-01-04T23:01:32.828Z,98034.97
2023-01-04T23:04:02.859Z,98024.75
2023-01-04T23:06:33.059Z,98030.84
2023-01-04T23:09:04.875Z,98035.31
2023-01-04T23:11:34.980Z,98026.88
2023-01-04T23:14:04.883Z,98031.31
2023-01-04T23:16:33.823Z,98028.56
2023-01-04T23:19:02.483Z,98011.81
2023-01-04T23:21:30.939Z,98004.94
2023-01-04T23:23:59.668Z,98000.53
2023-01-04T23:26:31.271Z,97998.13
2023-01-04T23:29:00.558Z,97988.69
2023-01-04T23:31:31.341Z,97981.78
2023-01-04T23:34:02.331Z,97969.50
2023-01-04T23:36:32.155Z,97964.19
2023-01-04T23:39:02.561Z,97973.78
2023-01-04T23:41:48.055Z,97959.78
2023-01-04T23:46:53.778Z,97960.94
2023-01-04T23:49:26.190Z,97957.59
2023-01-04T23:51:55.159Z,97946.25
2023-01-04T23:54:24.278Z,97950.63
2023-01-04T23:56:54.883Z,97938.31
2023-01-04T23:59:24.053Z,97937.19
